WASK/KNG METAR and TAF weather

Enter ICAO airport designator
Station Type Date Time Source
WASK METAR 2018/10/31 04:00 UTC NOAA

WASK 310400Z 26004KT 9999 SCT015 31/24 Q1008 NOSIG


Station Type Date Time Source
WASK Decoded METAR 2018/10/31 04:00 UTC NOAA

Kaimana / Utarom, Indonesia (WASK) 03-40S 133-45E 3M
Oct 31, 2018 - 12:00 AM EDT / 2018.10.31 0400 UTC
Wind: from the W (260 degrees) at 5 MPH (4 KT):0
Visibility: greater than 7 mile(s):0
Sky conditions: partly cloudy
Temperature: 87 F (31 C)
Heat index: 95.7 F (35.4 C):1
Dew Point: 75 F (24 C)
Relative Humidity: 66%
Pressure (altimeter): 29.77 in. Hg (1008 hPa)
ob: WASK 310400Z 26004KT 9999 SCT015 31/24 Q1008 NOSIG
cycle: 4

Station Type Date Time Source
WASK TAF UTC NOAA

Error!


Example: see airport list